sensor_id;sensor_type;location;lat;lon;timestamp;pressure;altitude;pressure_sealevel;temperature;humidity
50384;BME280;36301;48.310;12.786;2023-07-16T03:02:23;96218.09;;;20.14;100.00
50384;BME280;36301;48.310;12.786;2023-07-16T03:04:50;96240.25;;;20.18;100.00
50384;BME280;36301;48.310;12.786;2023-07-16T03:07:17;96240.78;;;20.13;100.00
50384;BME280;36301;48.310;12.786;2023-07-16T03:09:43;96248.59;;;20.08;100.00
50384;BME280;36301;48.310;12.786;2023-07-16T03:12:10;96262.19;;;20.01;100.00
50384;BME280;36301;48.310;12.786;2023-07-16T03:14:36;96273.00;;;19.97;100.00
50384;BME280;36301;48.310;12.786;2023-07-16T03:17:03;96272.75;;;19.91;100.00
50384;BME280;36301;48.310;12.786;2023-07-16T03:19:30;96283.75;;;19.97;100.00
50384;BME280;36301;48.310;12.786;2023-07-16T03:21:57;96283.16;;;19.89;100.00
50384;BME280;36301;48.310;12.786;2023-07-16T03:24:23;96298.88;;;19.91;100.00
50384;BME280;36301;48.310;12.786;2023-07-16T03:26:50;96293.66;;;19.84;100.00
50384;BME280;36301;48.310;12.786;2023-07-16T03:29:19;96293.31;;;19.82;100.00
50384;BME280;36301;48.310;12.786;2023-07-16T03:31:46;96298.69;;;19.82;100.00
50384;BME280;36301;48.310;12.786;2023-07-16T03:34:12;96299.03;;;19.84;100.00
50384;BME280;36301;48.310;12.786;2023-07-16T03:36:39;96280.53;;;19.69;100.00
50384;BME280;36301;48.310;12.786;2023-07-16T03:39:05;96287.03;;;19.72;100.00
50384;BME280;36301;48.310;12.786;2023-07-16T03:41:32;96306.25;;;19.87;100.00
50384;BME280;36301;48.310;12.786;2023-07-16T03:43:58;96297.66;;;19.76;100.00
50384;BME280;36301;48.310;12.786;2023-07-16T03:46:25;96313.28;;;19.81;100.00
50384;BME280;36301;48.310;12.786;2023-07-16T03:48:53;96319.97;;;19.92;100.00
50384;BME280;36301;48.310;12.786;2023-07-16T03:51:19;96327.34;;;19.88;100.00
50384;BME280;36301;48.310;12.786;2023-07-16T03:53:46;96326.28;;;20.02;100.00
50384;BME280;36301;48.310;12.786;2023-07-16T03:56:12;96327.44;;;20.01;100.00
50384;BME280;36301;48.310;12.786;2023-07-16T03:58:39;96329.72;;;20.03;100.00
50384;BME280;36301;48.310;12.786;2023-07-16T04:01:06;96325.16;;;20.00;100.00
50384;BME280;36301;48.310;12.786;2023-07-16T04:03:33;96326.59;;;20.04;100.00
50384;BME280;36301;48.310;12.786;2023-07-16T04:06:04;96338.19;;;20.01;100.00
50384;BME280;36301;48.310;12.786;2023-07-16T04:08:31;96350.78;;;20.04;100.00
50384;BME280;36301;48.310;12.786;2023-07-16T04:10:58;96340.03;;;20.04;100.00
50384;BME280;36301;48.310;12.786;2023-07-16T04:13:24;96352.72;;;20.04;100.00
50384;BME280;36301;48.310;12.786;2023-07-16T04:15:51;96362.13;;;20.12;100.00
50384;BME280;36301;48.310;12.786;2023-07-16T04:18:19;96366.59;;;20.18;100.00
50384;BME280;36301;48.310;12.786;2023-07-16T04:20:46;96360.06;;;20.19;100.00
50384;BME280;36301;48.310;12.786;2023-07-16T04:23:12;96360.63;;;20.11;100.00
50384;BME280;36301;48.310;12.786;2023-07-16T04:25:39;96353.06;;;20.06;100.00
50384;BME280;36301;48.310;12.786;2023-07-16T04:28:05;96354.75;;;20.16;100.00
50384;BME280;36301;48.310;12.786;2023-07-16T04:30:32;96364.25;;;20.20;100.00
50384;BME280;36301;48.310;12.786;2023-07-16T04:32:59;96372.16;;;20.28;100.00
50384;BME280;36301;48.310;12.786;2023-07-16T04:35:25;96363.00;;;20.25;100.00
50384;BME280;36301;48.310;12.786;2023-07-16T04:37:52;96369.19;;;20.22;100.00
50384;BME280;36301;48.310;12.786;2023-07-16T04:40:18;96363.06;;;20.21;100.00
50384;BME280;36301;48.310;12.786;2023-07-16T04:46:07;96379.13;;;20.09;100.00
50384;BME280;36301;48.310;12.786;2023-07-16T04:48:34;96385.81;;;20.17;100.00
50384;BME280;36301;48.310;12.786;2023-07-16T04:51:01;96387.94;;;20.26;100.00
50384;BME280;36301;48.310;12.786;2023-07-16T04:53:27;96388.63;;;20.13;100.00
50384;BME280;36301;48.310;12.786;2023-07-16T04:55:54;96387.75;;;20.16;100.00
50384;BME280;36301;48.310;12.786;2023-07-16T04:58:20;96386.50;;;20.21;100.00
50384;BME280;36301;48.310;12.786;2023-07-16T05:00:47;96393.84;;;20.37;100.00
50384;BME280;36301;48.310;12.786;2023-07-16T05:03:13;96380.56;;;20.46;100.00
50384;BME280;36301;48.310;12.786;2023-07-16T05:05:40;96379.16;;;20.58;100.00
50384;BME280;36301;48.310;12.786;2023-07-16T05:08:07;96376.75;;;20.63;100.00
50384;BME280;36301;48.310;12.786;2023-07-16T05:10:33;96382.44;;;20.65;100.00
50384;BME280;36301;48.310;12.786;2023-07-16T05:13:00;96379.41;;;20.80;100.00
50384;BME280;36301;48.310;12.786;2023-07-16T05:15:26;96390.66;;;20.91;100.00
50384;BME280;36301;48.310;12.786;2023-07-16T05:17:53;96377.25;;;20.75;100.00
50384;BME280;36301;48.310;12.786;2023-07-16T05:20:19;96397.00;;;20.84;100.00
50384;BME280;36301;48.310;12.786;2023-07-16T05:22:46;96402.53;;;20.93;100.00
50384;BME280;36301;48.310;12.786;2023-07-16T05:25:13;96399.19;;;20.89;100.00
50384;BME280;36301;48.310;12.786;2023-07-16T05:27:40;96406.22;;;20.83;100.00
50384;BME280;36301;48.310;12.786;2023-07-16T05:30:07;96403.72;;;20.76;100.00
50384;BME280;36301;48.310;12.786;2023-07-16T05:32:33;96399.59;;;20.71;100.00
50384;BME280;36301;48.310;12.786;2023-07-16T05:35:00;96418.00;;;20.73;100.00
50384;BME280;36301;48.310;12.786;2023-07-16T05:37:29;96404.81;;;20.62;100.00
50384;BME280;36301;48.310;12.786;2023-07-16T05:39:55;96408.09;;;20.70;100.00
50384;BME280;36301;48.310;12.786;2023-07-16T05:42:22;96410.34;;;20.71;100.00
50384;BME280;36301;48.310;12.786;2023-07-16T05:44:48;96419.44;;;20.78;100.00
50384;BME280;36301;48.310;12.786;2023-07-16T05:47:15;96418.94;;;20.66;100.00
50384;BME280;36301;48.310;12.786;2023-07-16T05:49:42;96417.59;;;20.58;100.00
50384;BME280;36301;48.310;12.786;2023-07-16T05:52:08;96436.75;;;20.60;100.00
50384;BME280;36301;48.310;12.786;2023-07-16T05:54:35;96437.84;;;20.63;100.00
50384;BME280;36301;48.310;12.786;2023-07-16T05:57:02;96444.88;;;20.40;100.00
50384;BME280;36301;48.310;12.786;2023-07-16T05:59:28;96446.97;;;20.33;100.00
50384;BME280;36301;48.310;12.786;2023-07-16T06:01:55;96445.44;;;20.32;100.00
50384;BME280;36301;48.310;12.786;2023-07-16T06:04:24;96445.78;;;20.34;100.00
50384;BME280;36301;48.310;12.786;2023-07-16T06:06:51;96442.50;;;20.42;100.00
50384;BME280;36301;48.310;12.786;2023-07-16T06:09:18;96439.41;;;20.44;100.00
50384;BME280;36301;48.310;12.786;2023-07-16T06:11:47;96444.09;;;20.40;100.00
50384;BME280;36301;48.310;12.786;2023-07-16T06:14:14;96436.38;;;20.42;100.00
50384;BME280;36301;48.310;12.786;2023-07-16T06:16:42;96434.94;;;20.37;100.00
50384;BME280;36301;48.310;12.786;2023-07-16T06:19:08;96445.41;;;20.52;100.00
50384;BME280;36301;48.310;12.786;2023-07-16T06:21:35;96453.72;;;20.57;100.00
50384;BME280;36301;48.310;12.786;2023-07-16T06:24:01;96460.41;;;20.85;100.00
50384;BME280;36301;48.310;12.786;2023-07-16T06:26:28;96462.00;;;20.99;100.00
50384;BME280;36301;48.310;12.786;2023-07-16T06:28:54;96462.31;;;21.01;100.00
50384;BME280;36301;48.310;12.786;2023-07-16T06:31:21;96472.09;;;20.95;100.00
50384;BME280;36301;48.310;12.786;2023-07-16T06:33:51;96468.72;;;20.91;100.00
50384;BME280;36301;48.310;12.786;2023-07-16T06:36:17;96478.81;;;21.19;100.00
50384;BME280;36301;48.310;12.786;2023-07-16T06:38:46;96463.41;;;21.36;100.00
50384;BME280;36301;48.310;12.786;2023-07-16T06:41:13;96472.06;;;21.73;100.00
50384;BME280;36301;48.310;12.786;2023-07-16T06:43:39;96471.38;;;21.98;99.36
50384;BME280;36301;48.310;12.786;2023-07-16T06:46:06;96472.09;;;22.15;96.76
50384;BME280;36301;48.310;12.786;2023-07-16T06:48:32;96465.53;;;22.16;98.08
50384;BME280;36301;48.310;12.786;2023-07-16T06:51:00;96463.16;;;22.43;97.13
50384;BME280;36301;48.310;12.786;2023-07-16T06:53:27;96469.63;;;22.33;98.57
50384;BME280;36301;48.310;12.786;2023-07-16T06:55:53;96468.25;;;21.99;100.00
50384;BME280;36301;48.310;12.786;2023-07-16T06:58:30;96455.47;;;21.74;100.00
50384;BME280;36301;48.310;12.786;2023-07-16T07:00:57;96456.63;;;21.61;100.00
50384;BME280;36301;48.310;12.786;2023-07-16T07:03:24;96465.50;;;21.45;100.00
50384;BME280;36301;48.310;12.786;2023-07-16T07:05:50;96476.03;;;21.39;100.00
50384;BME280;36301;48.310;12.786;2023-07-16T07:08:17;96481.50;;;21.36;100.00
50384;BME280;36301;48.310;12.786;2023-07-16T07:10:43;96463.31;;;21.40;100.00
50384;BME280;36301;48.310;12.786;2023-07-16T07:13:10;96463.66;;;21.25;100.00
50384;BME280;36301;48.310;12.786;2023-07-16T07:15:36;96462.31;;;21.17;100.00
50384;BME280;36301;48.310;12.786;2023-07-16T07:18:03;96472.69;;;21.19;100.00
50384;BME280;36301;48.310;12.786;2023-07-16T07:20:30;96473.50;;;21.32;100.00
50384;BME280;36301;48.310;12.786;2023-07-16T07:22:56;96482.00;;;21.47;100.00
50384;BME280;36301;48.310;12.786;2023-07-16T07:25:23;96474.00;;;21.43;100.00
50384;BME280;36301;48.310;12.786;2023-07-16T07:27:49;96471.72;;;21.42;100.00
50384;BME280;36301;48.310;12.786;2023-07-16T07:30:16;96481.00;;;21.41;100.00
50384;BME280;36301;48.310;12.786;2023-07-16T07:32:43;96484.00;;;21.27;100.00
50384;BME280;36301;48.310;12.786;2023-07-16T07:35:09;96491.34;;;21.26;100.00
50384;BME280;36301;48.310;12.786;2023-07-16T07:37:36;96493.19;;;21.29;100.00
50384;BME280;36301;48.310;12.786;2023-07-16T07:40:03;96494.63;;;21.34;100.00
50384;BME280;36301;48.310;12.786;2023-07-16T07:42:30;96494.63;;;21.34;100.00
50384;BME280;36301;48.310;12.786;2023-07-16T07:44:57;96500.16;;;21.43;100.00
50384;BME280;36301;48.310;12.786;2023-07-16T07:47:23;96497.88;;;21.58;100.00
50384;BME280;36301;48.310;12.786;2023-07-16T07:49:52;96492.19;;;21.68;100.00
50384;BME280;36301;48.310;12.786;2023-07-16T07:52:18;96491.38;;;21.84;100.00
50384;BME280;36301;48.310;12.786;2023-07-16T07:54:45;96486.34;;;21.86;100.00
50384;BME280;36301;48.310;12.786;2023-07-16T07:57:12;96482.59;;;22.25;100.00
50384;BME280;36301;48.310;12.786;2023-07-16T07:59:39;96476.56;;;22.60;98.94
50384;BME280;36301;48.310;12.786;2023-07-16T08:02:06;96479.25;;;22.60;91.90
50384;BME280;36301;48.310;12.786;2023-07-16T08:04:32;96482.81;;;22.82;91.94
50384;BME280;36301;48.310;12.786;2023-07-16T08:06:59;96479.97;;;23.11;87.52
50384;BME280;36301;48.310;12.786;2023-07-16T08:09:26;96489.13;;;23.61;84.74
50384;BME280;36301;48.310;12.786;2023-07-16T08:11:53;96461.50;;;24.54;79.62
50384;BME280;36301;48.310;12.786;2023-07-16T08:14:19;96488.56;;;24.32;79.63
50384;BME280;36301;48.310;12.786;2023-07-16T08:16:46;96489.19;;;24.58;78.85
50384;BME280;36301;48.310;12.786;2023-07-16T08:19:12;96485.47;;;25.23;73.88
50384;BME280;36301;48.310;12.786;2023-07-16T08:21:39;96482.66;;;25.73;71.01
50384;BME280;36301;48.310;12.786;2023-07-16T08:24:06;96480.56;;;25.77;71.11
50384;BME280;36301;48.310;12.786;2023-07-16T08:26:33;96484.31;;;25.70;65.06
50384;BME280;36301;48.310;12.786;2023-07-16T08:28:59;96493.84;;;26.54;64.32
50384;BME280;36301;48.310;12.786;2023-07-16T08:31:28;96485.09;;;27.64;57.79
50384;BME280;36301;48.310;12.786;2023-07-16T08:33:54;96487.88;;;27.07;61.66
50384;BME280;36301;48.310;12.786;2023-07-16T08:36:23;96485.53;;;26.57;61.32
50384;BME280;36301;48.310;12.786;2023-07-16T08:38:49;96481.31;;;25.77;66.27
50384;BME280;36301;48.310;12.786;2023-07-16T08:41:16;96483.78;;;27.35;60.99
50384;BME280;36301;48.310;12.786;2023-07-16T08:43:48;96475.56;;;28.28;56.95
50384;BME280;36301;48.310;12.786;2023-07-16T08:46:15;96477.28;;;28.10;57.88
50384;BME280;36301;48.310;12.786;2023-07-16T08:48:44;96481.22;;;28.24;58.53
50384;BME280;36301;48.310;12.786;2023-07-16T08:51:14;96472.69;;;27.63;59.09
50384;BME280;36301;48.310;12.786;2023-07-16T08:53:41;96473.03;;;27.17;58.52
50384;BME280;36301;48.310;12.786;2023-07-16T08:56:08;96471.56;;;27.07;61.16
50384;BME280;36301;48.310;12.786;2023-07-16T08:58:35;96481.44;;;26.10;62.25
50384;BME280;36301;48.310;12.786;2023-07-16T09:01:04;96469.09;;;25.63;65.76
50384;BME280;36301;48.310;12.786;2023-07-16T09:03:32;96470.78;;;26.49;63.59
50384;BME280;36301;48.310;12.786;2023-07-16T09:06:28;96474.81;;;27.83;56.95
50384;BME280;36301;48.310;12.786;2023-07-16T09:08:56;96477.28;;;28.25;54.53
50384;BME280;36301;48.310;12.786;2023-07-16T09:11:23;96476.22;;;28.08;56.45
50384;BME280;36301;48.310;12.786;2023-07-16T09:13:50;96466.72;;;27.11;58.20
50384;BME280;36301;48.310;12.786;2023-07-16T09:16:20;96484.22;;;26.34;61.87
50384;BME280;36301;48.310;12.786;2023-07-16T09:18:48;96472.44;;;26.80;61.11
50384;BME280;36301;48.310;12.786;2023-07-16T09:21:15;96459.41;;;28.54;53.58
50384;BME280;36301;48.310;12.786;2023-07-16T09:23:45;96464.50;;;28.46;54.18
50384;BME280;36301;48.310;12.786;2023-07-16T09:26:11;96462.66;;;29.08;50.20
50384;BME280;36301;48.310;12.786;2023-07-16T09:28:38;96457.44;;;29.91;48.40
50384;BME280;36301;48.310;12.786;2023-07-16T09:31:07;96458.94;;;28.70;49.29
50384;BME280;36301;48.310;12.786;2023-07-16T09:33:35;96461.38;;;29.03;51.18
50384;BME280;36301;48.310;12.786;2023-07-16T09:36:05;96449.34;;;30.03;50.88
50384;BME280;36301;48.310;12.786;2023-07-16T09:38:33;96449.91;;;30.38;45.87
50384;BME280;36301;48.310;12.786;2023-07-16T09:41:02;96447.13;;;29.34;52.66
50384;BME280;36301;48.310;12.786;2023-07-16T09:43:29;96454.81;;;28.30;52.22
50384;BME280;36301;48.310;12.786;2023-07-16T09:45:56;96452.88;;;28.81;50.22
50384;BME280;36301;48.310;12.786;2023-07-16T09:48:22;96449.41;;;27.62;53.51
50384;BME280;36301;48.310;12.786;2023-07-16T09:50:51;96434.50;;;26.95;55.92
50384;BME280;36301;48.310;12.786;2023-07-16T09:53:20;96433.28;;;27.58;53.95
50384;BME280;36301;48.310;12.786;2023-07-16T09:55:48;96435.53;;;29.19;49.63
50384;BME280;36301;48.310;12.786;2023-07-16T09:58:19;96431.50;;;29.35;47.73
50384;BME280;36301;48.310;12.786;2023-07-16T10:01:03;96429.25;;;29.54;46.83
50384;BME280;36301;48.310;12.786;2023-07-16T10:03:31;96432.75;;;27.30;51.79
50384;BME280;36301;48.310;12.786;2023-07-16T10:06:07;96426.94;;;26.65;55.36
50384;BME280;36301;48.310;12.786;2023-07-16T10:08:34;96429.38;;;26.21;57.43
50384;BME280;36301;48.310;12.786;2023-07-16T10:11:01;96435.50;;;25.79;59.08
50384;BME280;36301;48.310;12.786;2023-07-16T10:13:28;96437.16;;;25.68;59.04
50384;BME280;36301;48.310;12.786;2023-07-16T10:15:56;96427.69;;;25.81;57.34
50384;BME280;36301;48.310;12.786;2023-07-16T10:18:31;96418.63;;;25.39;60.72
50384;BME280;36301;48.310;12.786;2023-07-16T10:21:06;96418.56;;;26.12;60.59
50384;BME280;36301;48.310;12.786;2023-07-16T10:23:42;96420.28;;;25.54;61.59
50384;BME280;36301;48.310;12.786;2023-07-16T10:26:12;96413.00;;;26.49;55.40
50384;BME280;36301;48.310;12.786;2023-07-16T10:28:45;96408.97;;;27.79;52.15
50384;BME280;36301;48.310;12.786;2023-07-16T10:31:19;96408.84;;;26.72;55.35
50384;BME280;36301;48.310;12.786;2023-07-16T10:34:04;96386.06;;;27.85;54.08
50384;BME280;36301;48.310;12.786;2023-07-16T10:36:40;96390.34;;;27.92;50.33
50384;BME280;36301;48.310;12.786;2023-07-16T10:39:07;96389.59;;;28.21;52.91
50384;BME280;36301;48.310;12.786;2023-07-16T10:41:35;96381.59;;;28.88;51.66
50384;BME280;36301;48.310;12.786;2023-07-16T10:44:03;96387.13;;;28.73;50.82
50384;BME280;36301;48.310;12.786;2023-07-16T10:46:31;96379.25;;;28.25;50.91
50384;BME280;36301;48.310;12.786;2023-07-16T10:48:59;96373.47;;;27.58;52.35
50384;BME280;36301;48.310;12.786;2023-07-16T10:51:28;96377.09;;;28.44;50.03
50384;BME280;36301;48.310;12.786;2023-07-16T10:53:55;96373.72;;;28.90;52.07
50384;BME280;36301;48.310;12.786;2023-07-16T10:56:22;96373.91;;;28.86;47.91
50384;BME280;36301;48.310;12.786;2023-07-16T10:58:51;96380.25;;;28.78;47.72
50384;BME280;36301;48.310;12.786;2023-07-16T11:01:19;96374.88;;;28.48;50.54
50384;BME280;36301;48.310;12.786;2023-07-16T11:03:48;96374.28;;;28.59;49.55
50384;BME280;36301;48.310;12.786;2023-07-16T11:06:18;96366.63;;;28.78;48.64
50384;BME280;36301;48.310;12.786;2023-07-16T11:08:46;96366.00;;;28.68;49.16
50384;BME280;36301;48.310;12.786;2023-07-16T11:11:27;96364.25;;;28.85;48.48
50384;BME280;36301;48.310;12.786;2023-07-16T11:13:55;96359.75;;;28.82;49.98
50384;BME280;36301;48.310;12.786;2023-07-16T11:16:22;96358.25;;;29.02;48.29
50384;BME280;36301;48.310;12.786;2023-07-16T11:19:01;96358.59;;;29.09;46.87
50384;BME280;36301;48.310;12.786;2023-07-16T11:21:29;96361.59;;;29.11;47.19
50384;BME280;36301;48.310;12.786;2023-07-16T11:24:09;96363.31;;;29.35;45.53
50384;BME280;36301;48.310;12.786;2023-07-16T11:26:37;96362.47;;;29.03;45.40
50384;BME280;36301;48.310;12.786;2023-07-16T11:29:14;96363.44;;;28.09;46.90
50384;BME280;36301;48.310;12.786;2023-07-16T11:31:41;96356.28;;;28.11;47.36
50384;BME280;36301;48.310;12.786;2023-07-16T11:34:15;96353.03;;;28.28;47.32
50384;BME280;36301;48.310;12.786;2023-07-16T11:36:47;96338.75;;;28.88;46.51
50384;BME280;36301;48.310;12.786;2023-07-16T11:39:16;96351.44;;;29.12;45.15
50384;BME280;36301;48.310;12.786;2023-07-16T11:41:55;96347.19;;;29.31;45.45
50384;BME280;36301;48.310;12.786;2023-07-16T11:44:25;96350.88;;;29.08;46.17
50384;BME280;36301;48.310;12.786;2023-07-16T11:46:51;96360.31;;;29.07;45.50
50384;BME280;36301;48.310;12.786;2023-07-16T11:49:18;96345.81;;;28.95;44.08
50384;BME280;36301;48.310;12.786;2023-07-16T11:51:45;96337.16;;;27.91;45.42
50384;BME280;36301;48.310;12.786;2023-07-16T11:54:12;96339.38;;;28.07;45.80
50384;BME280;36301;48.310;12.786;2023-07-16T11:56:40;96333.03;;;27.96;46.23
50384;BME280;36301;48.310;12.786;2023-07-16T11:59:17;96329.88;;;28.53;45.46
50384;BME280;36301;48.310;12.786;2023-07-16T12:01:47;96325.81;;;28.83;44.69
50384;BME280;36301;48.310;12.786;2023-07-16T12:04:16;96330.19;;;28.95;44.26
50384;BME280;36301;48.310;12.786;2023-07-16T12:06:46;96317.34;;;29.22;43.51
50384;BME280;36301;48.310;12.786;2023-07-16T12:09:20;96309.31;;;29.13;42.24
50384;BME280;36301;48.310;12.786;2023-07-16T12:11:49;96304.06;;;28.13;45.43
50384;BME280;36301;48.310;12.786;2023-07-16T12:14:16;96313.84;;;28.19;46.91
50384;BME280;36301;48.310;12.786;2023-07-16T12:16:43;96303.09;;;27.66;48.31
50384;BME280;36301;48.310;12.786;2023-07-16T12:19:11;96296.56;;;28.08;46.61
50384;BME280;36301;48.310;12.786;2023-07-16T12:21:39;96298.53;;;28.83;44.96
50384;BME280;36301;48.310;12.786;2023-07-16T12:24:11;96301.72;;;28.56;46.06
50384;BME280;36301;48.310;12.786;2023-07-16T12:26:38;96304.97;;;29.01;44.61
50384;BME280;36301;48.310;12.786;2023-07-16T12:29:05;96308.84;;;28.74;44.96
50384;BME280;36301;48.310;12.786;2023-07-16T12:31:32;96308.44;;;29.01;44.14
50384;BME280;36301;48.310;12.786;2023-07-16T12:34:00;96300.88;;;29.11;46.71
50384;BME280;36301;48.310;12.786;2023-07-16T12:36:30;96294.13;;;29.32;46.04
50384;BME280;36301;48.310;12.786;2023-07-16T12:38:57;96292.94;;;29.65;43.73
50384;BME280;36301;48.310;12.786;2023-07-16T12:41:24;96280.81;;;28.93;44.17
50384;BME280;36301;48.310;12.786;2023-07-16T12:43:51;96283.38;;;28.97;44.42
50384;BME280;36301;48.310;12.786;2023-07-16T12:46:19;96284.94;;;28.83;44.90
50384;BME280;36301;48.310;12.786;2023-07-16T12:48:46;96279.34;;;28.72;44.55
50384;BME280;36301;48.310;12.786;2023-07-16T12:51:13;96286.59;;;28.75;44.79
50384;BME280;36301;48.310;12.786;2023-07-16T12:53:40;96286.59;;;29.21;44.58
50384;BME280;36301;48.310;12.786;2023-07-16T12:56:10;96286.44;;;28.84;44.20
50384;BME280;36301;48.310;12.786;2023-07-16T12:58:37;96289.22;;;28.90;44.58
50384;BME280;36301;48.310;12.786;2023-07-16T13:01:04;96279.66;;;28.74;44.57
50384;BME280;36301;48.310;12.786;2023-07-16T13:03:31;96278.75;;;28.62;45.10
50384;BME280;36301;48.310;12.786;2023-07-16T13:05:58;96276.69;;;28.57;43.58
50384;BME280;36301;48.310;12.786;2023-07-16T13:08:26;96275.78;;;29.07;43.30
50384;BME280;36301;48.310;12.786;2023-07-16T13:10:54;96277.28;;;29.34;43.25
50384;BME280;36301;48.310;12.786;2023-07-16T13:13:20;96284.91;;;29.04;42.62
50384;BME280;36301;48.310;12.786;2023-07-16T13:15:47;96280.91;;;28.99;43.55
50384;BME280;36301;48.310;12.786;2023-07-16T13:18:16;96280.00;;;29.60;43.04
50384;BME280;36301;48.310;12.786;2023-07-16T13:20:44;96268.81;;;29.58;42.54
50384;BME280;36301;48.310;12.786;2023-07-16T13:23:12;96270.97;;;29.80;42.58
50384;BME280;36301;48.310;12.786;2023-07-16T13:25:39;96268.47;;;29.50;41.45
50384;BME280;36301;48.310;12.786;2023-07-16T13:28:08;96254.66;;;29.54;41.67
50384;BME280;36301;48.310;12.786;2023-07-16T13:30:36;96263.91;;;29.62;41.59
50384;BME280;36301;48.310;12.786;2023-07-16T13:33:04;96249.59;;;29.72;43.36
50384;BME280;36301;48.310;12.786;2023-07-16T13:35:32;96244.91;;;29.15;42.73
50384;BME280;36301;48.310;12.786;2023-07-16T13:37:59;96246.19;;;29.52;41.79
50384;BME280;36301;48.310;12.786;2023-07-16T13:40:26;96251.66;;;29.89;43.17
50384;BME280;36301;48.310;12.786;2023-07-16T13:42:52;96253.59;;;29.77;41.63
50384;BME280;36301;48.310;12.786;2023-07-16T13:45:20;96243.41;;;29.46;42.06
50384;BME280;36301;48.310;12.786;2023-07-16T13:47:49;96252.25;;;29.61;42.28
50384;BME280;36301;48.310;12.786;2023-07-16T13:50:16;96248.09;;;29.71;42.51
50384;BME280;36301;48.310;12.786;2023-07-16T13:52:43;96243.59;;;29.68;41.26
50384;BME280;36301;48.310;12.786;2023-07-16T13:55:10;96245.69;;;29.53;41.75
50384;BME280;36301;48.310;12.786;2023-07-16T13:57:37;96242.13;;;29.41;43.13
50384;BME280;36301;48.310;12.786;2023-07-16T14:00:05;96249.81;;;29.69;42.46
50384;BME280;36301;48.310;12.786;2023-07-16T14:02:32;96234.34;;;29.92;41.88
50384;BME280;36301;48.310;12.786;2023-07-16T14:04:59;96240.19;;;29.79;42.20
50384;BME280;36301;48.310;12.786;2023-07-16T14:07:26;96233.88;;;29.62;42.42
50384;BME280;36301;48.310;12.786;2023-07-16T14:09:52;96235.56;;;29.54;41.32
50384;BME280;36301;48.310;12.786;2023-07-16T14:12:20;96227.66;;;29.98;42.63
50384;BME280;36301;48.310;12.786;2023-07-16T14:14:46;96219.28;;;30.08;41.69
50384;BME280;36301;48.310;12.786;2023-07-16T14:17:13;96216.44;;;30.39;43.11
50384;BME280;36301;48.310;12.786;2023-07-16T14:19:41;96215.69;;;30.33;42.18
50384;BME280;36301;48.310;12.786;2023-07-16T14:22:08;96215.44;;;29.88;42.00
50384;BME280;36301;48.310;12.786;2023-07-16T14:24:41;96213.91;;;29.82;42.10
50384;BME280;36301;48.310;12.786;2023-07-16T14:27:08;96218.81;;;29.72;41.81
50384;BME280;36301;48.310;12.786;2023-07-16T14:29:35;96206.97;;;29.81;42.40
50384;BME280;36301;48.310;12.786;2023-07-16T14:32:13;96201.91;;;30.11;43.99
50384;BME280;36301;48.310;12.786;2023-07-16T14:34:40;96207.66;;;30.13;42.26
50384;BME280;36301;48.310;12.786;2023-07-16T14:37:07;96211.97;;;30.36;43.34
50384;BME280;36301;48.310;12.786;2023-07-16T14:39:33;96207.94;;;29.78;42.34
50384;BME280;36301;48.310;12.786;2023-07-16T14:42:00;96198.97;;;29.71;42.49
50384;BME280;36301;48.310;12.786;2023-07-16T14:44:30;96207.47;;;29.47;43.54
50384;BME280;36301;48.310;12.786;2023-07-16T14:46:56;96204.34;;;29.97;43.70
50384;BME280;36301;48.310;12.786;2023-07-16T14:49:23;96199.13;;;30.05;41.90
50384;BME280;36301;48.310;12.786;2023-07-16T14:51:50;96200.75;;;30.23;41.69
50384;BME280;36301;48.310;12.786;2023-07-16T14:54:18;96199.63;;;30.58;41.46
50384;BME280;36301;48.310;12.786;2023-07-16T14:56:45;96192.94;;;30.64;41.91
50384;BME280;36301;48.310;12.786;2023-07-16T14:59:11;96198.16;;;30.57;41.47
50384;BME280;36301;48.310;12.786;2023-07-16T15:01:38;96198.59;;;30.49;41.67
50384;BME280;36301;48.310;12.786;2023-07-16T15:04:08;96190.22;;;30.05;42.17
50384;BME280;36301;48.310;12.786;2023-07-16T15:06:45;96196.69;;;30.07;42.03
50384;BME280;36301;48.310;12.786;2023-07-16T15:09:11;96190.28;;;30.16;43.13
50384;BME280;36301;48.310;12.786;2023-07-16T15:11:40;96196.84;;;29.87;42.77
50384;BME280;36301;48.310;12.786;2023-07-16T15:14:06;96185.59;;;29.79;42.14
50384;BME280;36301;48.310;12.786;2023-07-16T15:16:35;96193.94;;;29.64;43.17
50384;BME280;36301;48.310;12.786;2023-07-16T15:19:02;96188.69;;;29.24;43.10
50384;BME280;36301;48.310;12.786;2023-07-16T15:21:29;96193.69;;;28.99;43.66
50384;BME280;36301;48.310;12.786;2023-07-16T15:23:56;96195.03;;;29.41;43.09
50384;BME280;36301;48.310;12.786;2023-07-16T15:26:23;96194.97;;;29.67;43.95
50384;BME280;36301;48.310;12.786;2023-07-16T15:28:50;96193.78;;;29.73;45.76
50384;BME280;36301;48.310;12.786;2023-07-16T15:31:16;96198.81;;;29.86;43.55
50384;BME280;36301;48.310;12.786;2023-07-16T15:33:44;96197.31;;;29.85;43.06
50384;BME280;36301;48.310;12.786;2023-07-16T15:36:10;96193.19;;;30.01;44.57
50384;BME280;36301;48.310;12.786;2023-07-16T15:38:37;96196.91;;;30.04;42.73
50384;BME280;36301;48.310;12.786;2023-07-16T15:41:05;96199.59;;;29.92;43.05
50384;BME280;36301;48.310;12.786;2023-07-16T15:43:31;96188.72;;;30.04;43.22
50384;BME280;36301;48.310;12.786;2023-07-16T15:45:58;96186.44;;;29.54;42.51
50384;BME280;36301;48.310;12.786;2023-07-16T15:48:25;96194.13;;;29.92;42.76
50384;BME280;36301;48.310;12.786;2023-07-16T15:50:56;96188.25;;;30.11;42.34
50384;BME280;36301;48.310;12.786;2023-07-16T15:53:22;96188.75;;;30.09;42.73